sensor_id;sensor_type;location;lat;lon;timestamp;P1;P2;P0
80555;PMS5003;69889;55.040;73.076;2024-03-02T00:00:20;4.00;3.00;2.00
80555;PMS5003;69889;55.040;73.076;2024-03-02T00:02:48;3.00;2.00;1.00
80555;PMS5003;69889;55.040;73.076;2024-03-02T00:05:16;3.25;3.00;2.00
80555;PMS5003;69889;55.040;73.076;2024-03-02T00:07:43;5.00;4.00;2.00
80555;PMS5003;69889;55.040;73.076;2024-03-02T00:10:11;2.00;2.00;1.25
80555;PMS5003;69889;55.040;73.076;2024-03-02T00:12:38;4.00;3.25;2.00
80555;PMS5003;69889;55.040;73.076;2024-03-02T00:15:05;3.25;3.00;2.00
80555;PMS5003;69889;55.040;73.076;2024-03-02T00:17:33;4.00;3.00;2.00
80555;PMS5003;69889;55.040;73.076;2024-03-02T00:19:59;4.00;3.00;2.00
80555;PMS5003;69889;55.040;73.076;2024-03-02T00:22:26;4.00;3.00;2.00
80555;PMS5003;69889;55.040;73.076;2024-03-02T00:24:52;4.00;3.25;2.00
80555;PMS5003;69889;55.040;73.076;2024-03-02T00:27:20;6.00;5.00;3.00
80555;PMS5003;69889;55.040;73.076;2024-03-02T00:29:46;4.00;4.00;2.00
80555;PMS5003;69889;55.040;73.076;2024-03-02T00:32:13;6.25;4.75;2.00
80555;PMS5003;69889;55.040;73.076;2024-03-02T00:34:42;3.00;3.00;2.00
80555;PMS5003;69889;55.040;73.076;2024-03-02T00:37:08;4.00;3.00;2.00
80555;PMS5003;69889;55.040;73.076;2024-03-02T00:39:34;3.00;3.00;2.00
80555;PMS5003;69889;55.040;73.076;2024-03-02T00:42:01;3.00;3.00;2.00
80555;PMS5003;69889;55.040;73.076;2024-03-02T00:44:28;3.25;3.00;2.00
80555;PMS5003;69889;55.040;73.076;2024-03-02T00:47:01;4.00;3.75;2.00
80555;PMS5003;69889;55.040;73.076;2024-03-02T00:49:28;4.00;3.50;2.00
80555;PMS5003;69889;55.040;73.076;2024-03-02T00:51:55;4.25;4.00;2.75
80555;PMS5003;69889;55.040;73.076;2024-03-02T00:54:22;5.00;4.00;3.00
80555;PMS5003;69889;55.040;73.076;2024-03-02T00:56:50;4.00;4.00;2.00
80555;PMS5003;69889;55.040;73.076;2024-03-02T00:59:17;4.00;4.00;2.00
80555;PMS5003;69889;55.040;73.076;2024-03-02T01:01:43;2.75;2.00;1.25
80555;PMS5003;69889;55.040;73.076;2024-03-02T01:04:10;3.00;2.00;1.00
80555;PMS5003;69889;55.040;73.076;2024-03-02T01:06:36;3.00;3.00;2.00
80555;PMS5003;69889;55.040;73.076;2024-03-02T01:09:03;3.00;2.75;2.00
80555;PMS5003;69889;55.040;73.076;2024-03-02T01:11:29;4.75;4.00;3.00
80555;PMS5003;69889;55.040;73.076;2024-03-02T01:13:56;3.00;3.00;2.00
80555;PMS5003;69889;55.040;73.076;2024-03-02T01:16:22;3.00;2.75;2.00
80555;PMS5003;69889;55.040;73.076;2024-03-02T01:18:49;6.00;4.00;3.00
80555;PMS5003;69889;55.040;73.076;2024-03-02T01:21:15;5.00;3.25;1.25
80555;PMS5003;69889;55.040;73.076;2024-03-02T01:23:42;4.00;3.25;2.00
80555;PMS5003;69889;55.040;73.076;2024-03-02T01:26:08;3.75;3.00;2.00
80555;PMS5003;69889;55.040;73.076;2024-03-02T01:28:34;3.25;3.00;1.00
80555;PMS5003;69889;55.040;73.076;2024-03-02T01:31:01;4.00;3.25;2.00
80555;PMS5003;69889;55.040;73.076;2024-03-02T01:33:28;3.00;2.00;2.00
80555;PMS5003;69889;55.040;73.076;2024-03-02T01:35:54;4.00;3.00;1.00
80555;PMS5003;69889;55.040;73.076;2024-03-02T01:38:21;3.00;2.00;1.00
80555;PMS5003;69889;55.040;73.076;2024-03-02T01:40:47;3.00;2.75;1.25
80555;PMS5003;69889;55.040;73.076;2024-03-02T01:43:14;3.00;2.25;1.50
80555;PMS5003;69889;55.040;73.076;2024-03-02T01:45:40;4.00;3.00;2.00
80555;PMS5003;69889;55.040;73.076;2024-03-02T01:48:07;4.00;3.00;2.00
80555;PMS5003;69889;55.040;73.076;2024-03-02T01:50:33;3.00;2.50;1.75
80555;PMS5003;69889;55.040;73.076;2024-03-02T01:53:00;2.00;1.75;1.00
80555;PMS5003;69889;55.040;73.076;2024-03-02T01:55:28;2.25;2.25;1.00
80555;PMS5003;69889;55.040;73.076;2024-03-02T01:57:56;4.00;3.00;2.00
80555;PMS5003;69889;55.040;73.076;2024-03-02T02:00:22;3.00;3.00;2.00
80555;PMS5003;69889;55.040;73.076;2024-03-02T02:02:51;2.00;2.00;2.00
80555;PMS5003;69889;55.040;73.076;2024-03-02T02:05:18;3.00;3.00;1.75
80555;PMS5003;69889;55.040;73.076;2024-03-02T02:07:45;3.00;2.00;1.00
80555;PMS5003;69889;55.040;73.076;2024-03-02T02:10:11;2.00;2.00;2.00
80555;PMS5003;69889;55.040;73.076;2024-03-02T02:12:38;2.00;1.75;1.00
80555;PMS5003;69889;55.040;73.076;2024-03-02T02:17:51;3.00;3.00;2.00
80555;PMS5003;69889;55.040;73.076;2024-03-02T02:20:18;2.50;2.00;1.00
80555;PMS5003;69889;55.040;73.076;2024-03-02T02:22:57;3.00;2.25;2.00
80555;PMS5003;69889;55.040;73.076;2024-03-02T02:25:24;3.00;2.00;2.00
80555;PMS5003;69889;55.040;73.076;2024-03-02T02:27:51;2.00;2.00;1.00
80555;PMS5003;69889;55.040;73.076;2024-03-02T02:30:23;2.25;2.00;1.00
80555;PMS5003;69889;55.040;73.076;2024-03-02T02:32:50;3.00;3.00;2.00
80555;PMS5003;69889;55.040;73.076;2024-03-02T02:35:16;3.00;3.00;1.75
80555;PMS5003;69889;55.040;73.076;2024-03-02T02:37:43;3.00;3.00;2.00
80555;PMS5003;69889;55.040;73.076;2024-03-02T02:40:10;3.25;3.00;2.00
80555;PMS5003;69889;55.040;73.076;2024-03-02T02:42:37;4.00;3.00;2.00
80555;PMS5003;69889;55.040;73.076;2024-03-02T02:45:04;3.00;2.00;1.00
80555;PMS5003;69889;55.040;73.076;2024-03-02T02:47:30;4.00;4.00;2.00
80555;PMS5003;69889;55.040;73.076;2024-03-02T02:49:56;3.50;3.00;1.75
80555;PMS5003;69889;55.040;73.076;2024-03-02T02:52:23;2.00;2.00;1.00
80555;PMS5003;69889;55.040;73.076;2024-03-02T02:54:49;3.00;3.00;2.00
80555;PMS5003;69889;55.040;73.076;2024-03-02T02:57:16;3.00;2.00;1.00
80555;PMS5003;69889;55.040;73.076;2024-03-02T02:59:42;9.75;7.50;3.00
80555;PMS5003;69889;55.040;73.076;2024-03-02T03:02:09;2.25;2.00;1.75
80555;PMS5003;69889;55.040;73.076;2024-03-02T03:04:35;2.00;2.00;1.00
80555;PMS5003;69889;55.040;73.076;2024-03-02T03:07:01;2.00;2.00;1.00
80555;PMS5003;69889;55.040;73.076;2024-03-02T03:09:28;2.00;2.00;2.00
80555;PMS5003;69889;55.040;73.076;2024-03-02T03:11:54;2.50;2.00;2.00
80555;PMS5003;69889;55.040;73.076;2024-03-02T03:14:21;3.00;2.25;1.00
80555;PMS5003;69889;55.040;73.076;2024-03-02T03:16:47;3.00;3.00;1.25
80555;PMS5003;69889;55.040;73.076;2024-03-02T03:19:14;4.00;3.50;2.00
80555;PMS5003;69889;55.040;73.076;2024-03-02T03:21:41;4.50;2.00;1.00
80555;PMS5003;69889;55.040;73.076;2024-03-02T03:24:09;2.75;2.50;2.00
80555;PMS5003;69889;55.040;73.076;2024-03-02T03:26:36;2.00;2.00;1.00
80555;PMS5003;69889;55.040;73.076;2024-03-02T03:29:02;2.00;2.00;1.00
80555;PMS5003;69889;55.040;73.076;2024-03-02T03:31:29;3.00;3.00;2.00
80555;PMS5003;69889;55.040;73.076;2024-03-02T03:33:55;3.00;3.00;1.00
80555;PMS5003;69889;55.040;73.076;2024-03-02T03:36:22;3.00;2.00;1.50
80555;PMS5003;69889;55.040;73.076;2024-03-02T03:38:48;3.00;3.00;2.00
80555;PMS5003;69889;55.040;73.076;2024-03-02T03:41:14;3.00;2.00;1.00
80555;PMS5003;69889;55.040;73.076;2024-03-02T03:43:41;3.00;3.00;2.00
80555;PMS5003;69889;55.040;73.076;2024-03-02T03:46:07;3.00;2.25;1.00
80555;PMS5003;69889;55.040;73.076;2024-03-02T03:48:36;2.00;2.00;1.00
80555;PMS5003;69889;55.040;73.076;2024-03-02T03:51:02;1.75;1.75;1.00
80555;PMS5003;69889;55.040;73.076;2024-03-02T03:53:29;3.25;3.00;2.00
80555;PMS5003;69889;55.040;73.076;2024-03-02T03:55:55;2.00;2.00;1.00
80555;PMS5003;69889;55.040;73.076;2024-03-02T03:58:22;4.00;3.00;1.00
80555;PMS5003;69889;55.040;73.076;2024-03-02T04:00:48;1.00;1.00;1.00
80555;PMS5003;69889;55.040;73.076;2024-03-02T04:03:15;2.00;2.00;2.00
80555;PMS5003;69889;55.040;73.076;2024-03-02T04:05:41;2.25;2.00;2.00
80555;PMS5003;69889;55.040;73.076;2024-03-02T04:08:07;3.00;3.00;2.00
80555;PMS5003;69889;55.040;73.076;2024-03-02T04:10:34;1.75;1.75;1.00
80555;PMS5003;69889;55.040;73.076;2024-03-02T04:13:01;3.00;2.25;1.00
80555;PMS5003;69889;55.040;73.076;2024-03-02T04:15:27;3.00;2.00;1.00
80555;PMS5003;69889;55.040;73.076;2024-03-02T04:17:54;3.00;2.00;1.50
80555;PMS5003;69889;55.040;73.076;2024-03-02T04:20:21;2.75;2.00;1.00
80555;PMS5003;69889;55.040;73.076;2024-03-02T04:22:47;3.00;3.00;2.00
80555;PMS5003;69889;55.040;73.076;2024-03-02T04:25:14;2.75;2.00;2.00
80555;PMS5003;69889;55.040;73.076;2024-03-02T04:27:41;1.00;1.00;1.00
80555;PMS5003;69889;55.040;73.076;2024-03-02T04:30:07;3.00;2.00;1.00
80555;PMS5003;69889;55.040;73.076;2024-03-02T04:32:34;4.00;3.00;1.00
80555;PMS5003;69889;55.040;73.076;2024-03-02T04:35:02;3.00;3.00;2.00
80555;PMS5003;69889;55.040;73.076;2024-03-02T04:37:28;3.00;2.00;2.00
80555;PMS5003;69889;55.040;73.076;2024-03-02T04:39:55;3.00;2.00;1.00
80555;PMS5003;69889;55.040;73.076;2024-03-02T04:42:21;2.00;2.00;2.00
80555;PMS5003;69889;55.040;73.076;2024-03-02T04:44:48;1.00;1.00;1.00
80555;PMS5003;69889;55.040;73.076;2024-03-02T04:47:15;2.00;1.25;1.00
80555;PMS5003;69889;55.040;73.076;2024-03-02T04:49:41;4.00;3.00;2.00
80555;PMS5003;69889;55.040;73.076;2024-03-02T04:52:07;4.00;3.00;2.00
80555;PMS5003;69889;55.040;73.076;2024-03-02T04:54:34;3.00;3.00;2.00
80555;PMS5003;69889;55.040;73.076;2024-03-02T04:57:20;3.00;3.00;2.25
80555;PMS5003;69889;55.040;73.076;2024-03-02T04:59:46;4.00;3.00;2.00
80555;PMS5003;69889;55.040;73.076;2024-03-02T05:02:13;2.00;2.00;1.00
80555;PMS5003;69889;55.040;73.076;2024-03-02T05:04:40;3.00;2.75;2.00
80555;PMS5003;69889;55.040;73.076;2024-03-02T05:07:07;2.00;1.00;1.00
80555;PMS5003;69889;55.040;73.076;2024-03-02T05:09:33;3.75;3.25;2.00
80555;PMS5003;69889;55.040;73.076;2024-03-02T05:12:00;3.00;3.00;2.00
80555;PMS5003;69889;55.040;73.076;2024-03-02T05:14:49;2.00;1.75;1.00
80555;PMS5003;69889;55.040;73.076;2024-03-02T05:17:16;2.00;2.00;2.00
80555;PMS5003;69889;55.040;73.076;2024-03-02T05:19:42;3.00;2.75;1.50
80555;PMS5003;69889;55.040;73.076;2024-03-02T05:22:09;3.00;2.00;2.00
80555;PMS5003;69889;55.040;73.076;2024-03-02T05:24:35;3.00;3.00;1.50
80555;PMS5003;69889;55.040;73.076;2024-03-02T05:27:03;2.00;2.00;1.00
80555;PMS5003;69889;55.040;73.076;2024-03-02T05:29:29;3.00;2.00;1.50
80555;PMS5003;69889;55.040;73.076;2024-03-02T05:31:56;3.50;3.00;2.00
80555;PMS5003;69889;55.040;73.076;2024-03-02T05:34:22;1.75;1.75;1.00
80555;PMS5003;69889;55.040;73.076;2024-03-02T05:36:48;3.25;2.50;2.00
80555;PMS5003;69889;55.040;73.076;2024-03-02T05:39:15;3.50;3.00;2.00
80555;PMS5003;69889;55.040;73.076;2024-03-02T05:41:41;5.00;3.25;2.75
80555;PMS5003;69889;55.040;73.076;2024-03-02T05:44:08;3.25;3.00;2.00
80555;PMS5003;69889;55.040;73.076;2024-03-02T05:46:34;3.00;3.00;2.00
80555;PMS5003;69889;55.040;73.076;2024-03-02T05:49:01;3.25;3.00;2.00
80555;PMS5003;69889;55.040;73.076;2024-03-02T05:51:27;3.00;2.75;2.00
80555;PMS5003;69889;55.040;73.076;2024-03-02T05:53:53;4.00;3.00;2.00
80555;PMS5003;69889;55.040;73.076;2024-03-02T05:56:20;5.00;4.00;2.25
80555;PMS5003;69889;55.040;73.076;2024-03-02T05:58:46;5.00;4.00;3.00
80555;PMS5003;69889;55.040;73.076;2024-03-02T06:01:31;3.00;3.00;2.00
80555;PMS5003;69889;55.040;73.076;2024-03-02T06:03:57;4.00;4.00;2.00
80555;PMS5003;69889;55.040;73.076;2024-03-02T06:06:24;4.25;3.25;2.00
80555;PMS5003;69889;55.040;73.076;2024-03-02T06:08:51;3.00;3.00;2.00
80555;PMS5003;69889;55.040;73.076;2024-03-02T06:11:21;4.00;4.00;3.00
80555;PMS5003;69889;55.040;73.076;2024-03-02T06:13:47;5.00;4.00;2.00
80555;PMS5003;69889;55.040;73.076;2024-03-02T06:16:14;5.00;4.75;3.00
80555;PMS5003;69889;55.040;73.076;2024-03-02T06:18:40;3.00;3.00;2.00
80555;PMS5003;69889;55.040;73.076;2024-03-02T06:21:07;6.00;5.00;4.00
80555;PMS5003;69889;55.040;73.076;2024-03-02T06:23:34;6.00;5.00;3.00
80555;PMS5003;69889;55.040;73.076;2024-03-02T06:26:01;5.75;4.00;3.00
80555;PMS5003;69889;55.040;73.076;2024-03-02T06:28:28;7.00;5.50;3.75
80555;PMS5003;69889;55.040;73.076;2024-03-02T06:30:55;6.50;5.00;3.00
80555;PMS5003;69889;55.040;73.076;2024-03-02T06:33:21;8.00;6.00;3.00
80555;PMS5003;69889;55.040;73.076;2024-03-02T06:35:48;9.00;8.00;5.00
80555;PMS5003;69889;55.040;73.076;2024-03-02T06:38:15;8.00;6.75;4.00
80555;PMS5003;69889;55.040;73.076;2024-03-02T06:40:41;9.00;8.00;5.00
80555;PMS5003;69889;55.040;73.076;2024-03-02T06:43:08;10.25;10.00;6.00
80555;PMS5003;69889;55.040;73.076;2024-03-02T06:45:34;12.00;10.00;7.00
80555;PMS5003;69889;55.040;73.076;2024-03-02T06:48:01;7.00;7.00;4.25
80555;PMS5003;69889;55.040;73.076;2024-03-02T06:50:28;12.25;10.50;8.00
80555;PMS5003;69889;55.040;73.076;2024-03-02T06:52:54;11.50;9.50;6.00
80555;PMS5003;69889;55.040;73.076;2024-03-02T06:55:22;12.00;9.75;6.75
80555;PMS5003;69889;55.040;73.076;2024-03-02T06:57:48;10.00;9.00;6.00
80555;PMS5003;69889;55.040;73.076;2024-03-02T07:00:15;10.00;9.00;6.00
80555;PMS5003;69889;55.040;73.076;2024-03-02T07:02:41;12.50;11.00;7.00
80555;PMS5003;69889;55.040;73.076;2024-03-02T07:05:08;11.75;10.50;7.00
80555;PMS5003;69889;55.040;73.076;2024-03-02T07:07:34;13.00;11.00;8.00
80555;PMS5003;69889;55.040;73.076;2024-03-02T07:10:01;12.00;10.00;7.00
80555;PMS5003;69889;55.040;73.076;2024-03-02T07:12:28;14.00;12.00;7.00
80555;PMS5003;69889;55.040;73.076;2024-03-02T07:14:54;15.00;13.00;8.00
80555;PMS5003;69889;55.040;73.076;2024-03-02T07:17:40;13.25;11.25;7.00
80555;PMS5003;69889;55.040;73.076;2024-03-02T07:20:07;12.25;10.50;6.00
80555;PMS5003;69889;55.040;73.076;2024-03-02T07:22:35;10.00;9.00;5.00
80555;PMS5003;69889;55.040;73.076;2024-03-02T07:25:03;10.75;9.00;6.00
80555;PMS5003;69889;55.040;73.076;2024-03-02T07:27:30;10.50;9.00;6.00
80555;PMS5003;69889;55.040;73.076;2024-03-02T07:29:57;11.00;8.75;5.00
80555;PMS5003;69889;55.040;73.076;2024-03-02T07:32:24;12.75;11.00;7.00
80555;PMS5003;69889;55.040;73.076;2024-03-02T07:34:50;14.00;11.00;7.00
80555;PMS5003;69889;55.040;73.076;2024-03-02T07:37:17;13.00;11.00;7.00
80555;PMS5003;69889;55.040;73.076;2024-03-02T07:39:44;8.00;7.00;5.50
80555;PMS5003;69889;55.040;73.076;2024-03-02T07:42:11;8.00;7.00;4.50
80555;PMS5003;69889;55.040;73.076;2024-03-02T07:44:38;12.00;10.00;6.00
80555;PMS5003;69889;55.040;73.076;2024-03-02T07:47:04;10.00;9.00;6.00
80555;PMS5003;69889;55.040;73.076;2024-03-02T07:49:31;9.75;8.50;5.50
80555;PMS5003;69889;55.040;73.076;2024-03-02T07:51:57;10.00;9.00;5.25
80555;PMS5003;69889;55.040;73.076;2024-03-02T07:54:24;9.50;8.00;6.00
80555;PMS5003;69889;55.040;73.076;2024-03-02T07:56:51;12.75;10.50;7.00
80555;PMS5003;69889;55.040;73.076;2024-03-02T07:59:17;9.50;8.00;5.25
80555;PMS5003;69889;55.040;73.076;2024-03-02T08:01:44;10.00;9.00;6.00
80555;PMS5003;69889;55.040;73.076;2024-03-02T08:04:10;10.50;8.75;6.00
80555;PMS5003;69889;55.040;73.076;2024-03-02T08:06:38;8.50;8.25;6.00
80555;PMS5003;69889;55.040;73.076;2024-03-02T08:09:04;10.00;8.00;5.00
80555;PMS5003;69889;55.040;73.076;2024-03-02T08:11:35;12.00;10.75;7.00
80555;PMS5003;69889;55.040;73.076;2024-03-02T08:14:02;13.00;11.00;7.00
80555;PMS5003;69889;55.040;73.076;2024-03-02T08:16:28;13.00;11.00;6.00
80555;PMS5003;69889;55.040;73.076;2024-03-02T08:18:55;13.00;11.00;7.00
80555;PMS5003;69889;55.040;73.076;2024-03-02T08:21:24;15.00;12.50;8.75
80555;PMS5003;69889;55.040;73.076;2024-03-02T08:23:50;13.00;11.00;5.75
80555;PMS5003;69889;55.040;73.076;2024-03-02T08:26:17;9.00;8.00;4.00
80555;PMS5003;69889;55.040;73.076;2024-03-02T08:28:44;9.75;7.75;5.00
80555;PMS5003;69889;55.040;73.076;2024-03-02T08:31:11;10.00;9.00;5.00
80555;PMS5003;69889;55.040;73.076;2024-03-02T08:33:37;10.00;8.00;6.00
80555;PMS5003;69889;55.040;73.076;2024-03-02T08:36:04;9.00;8.50;6.00
80555;PMS5003;69889;55.040;73.076;2024-03-02T08:38:31;8.75;8.00;6.00
80555;PMS5003;69889;55.040;73.076;2024-03-02T08:40:57;10.00;8.00;5.00
80555;PMS5003;69889;55.040;73.076;2024-03-02T08:43:24;7.00;6.50;4.25
80555;PMS5003;69889;55.040;73.076;2024-03-02T08:45:52;12.00;10.00;5.00
80555;PMS5003;69889;55.040;73.076;2024-03-02T08:48:19;9.00;8.00;5.00
80555;PMS5003;69889;55.040;73.076;2024-03-02T08:50:46;10.00;9.00;6.00
80555;PMS5003;69889;55.040;73.076;2024-03-02T08:53:13;13.00;10.00;6.50
80555;PMS5003;69889;55.040;73.076;2024-03-02T08:55:47;10.50;9.00;5.50
80555;PMS5003;69889;55.040;73.076;2024-03-02T08:58:13;11.00;10.00;6.00
80555;PMS5003;69889;55.040;73.076;2024-03-02T09:00:40;11.00;10.00;7.00
80555;PMS5003;69889;55.040;73.076;2024-03-02T09:03:06;9.00;8.50;5.75
80555;PMS5003;69889;55.040;73.076;2024-03-02T09:05:33;8.25;8.00;5.00
80555;PMS5003;69889;55.040;73.076;2024-03-02T09:08:00;7.25;6.50;4.25
80555;PMS5003;69889;55.040;73.076;2024-03-02T09:10:26;8.25;7.50;5.00
80555;PMS5003;69889;55.040;73.076;2024-03-02T09:12:52;8.00;7.25;5.00
80555;PMS5003;69889;55.040;73.076;2024-03-02T09:15:19;9.00;8.00;4.75
80555;PMS5003;69889;55.040;73.076;2024-03-02T09:17:45;7.25;5.75;4.00
80555;PMS5003;69889;55.040;73.076;2024-03-02T09:20:12;10.00;9.00;5.00
80555;PMS5003;69889;55.040;73.076;2024-03-02T09:22:40;10.00;8.00;5.00
80555;PMS5003;69889;55.040;73.076;2024-03-02T09:25:07;9.00;7.50;4.00
80555;PMS5003;69889;55.040;73.076;2024-03-02T09:27:38;9.00;8.00;6.00
80555;PMS5003;69889;55.040;73.076;2024-03-02T09:30:05;8.00;7.75;4.75
80555;PMS5003;69889;55.040;73.076;2024-03-02T09:32:51;6.00;5.00;4.00
80555;PMS5003;69889;55.040;73.076;2024-03-02T09:35:17;8.00;7.00;4.25
80555;PMS5003;69889;55.040;73.076;2024-03-02T09:37:44;7.00;5.25;4.00
80555;PMS5003;69889;55.040;73.076;2024-03-02T09:40:10;8.25;7.75;5.00
80555;PMS5003;69889;55.040;73.076;2024-03-02T09:42:37;6.75;6.25;3.75
80555;PMS5003;69889;55.040;73.076;2024-03-02T09:45:04;10.00;8.25;5.00
80555;PMS5003;69889;55.040;73.076;2024-03-02T09:47:30;8.00;7.00;5.00
80555;PMS5003;69889;55.040;73.076;2024-03-02T09:49:57;8.00;7.00;5.00
80555;PMS5003;69889;55.040;73.076;2024-03-02T09:52:23;5.50;5.25;3.00
80555;PMS5003;69889;55.040;73.076;2024-03-02T09:54:50;6.00;5.50;4.00
80555;PMS5003;69889;55.040;73.076;2024-03-02T09:57:16;6.50;6.00;4.00
80555;PMS5003;69889;55.040;73.076;2024-03-02T09:59:43;5.00;4.50;3.50
80555;PMS5003;69889;55.040;73.076;2024-03-02T10:02:11;6.25;5.75;3.50
80555;PMS5003;69889;55.040;73.076;2024-03-02T10:04:37;5.00;5.00;3.00
80555;PMS5003;69889;55.040;73.076;2024-03-02T10:07:10;9.00;8.00;5.00
80555;PMS5003;69889;55.040;73.076;2024-03-02T10:09:37;9.00;7.50;4.00
80555;PMS5003;69889;55.040;73.076;2024-03-02T10:12:04;7.00;6.00;4.00
80555;PMS5003;69889;55.040;73.076;2024-03-02T10:14:31;5.00;4.00;3.00
80555;PMS5003;69889;55.040;73.076;2024-03-02T10:17:05;6.00;5.00;2.00
80555;PMS5003;69889;55.040;73.076;2024-03-02T10:19:33;7.00;6.00;5.00
80555;PMS5003;69889;55.040;73.076;2024-03-02T10:22:01;6.00;5.00;4.00
80555;PMS5003;69889;55.040;73.076;2024-03-02T10:24:34;6.25;6.00;4.00
80555;PMS5003;69889;55.040;73.076;2024-03-02T10:27:02;8.00;7.00;4.00
80555;PMS5003;69889;55.040;73.076;2024-03-02T10:29:32;7.00;6.00;3.00
80555;PMS5003;69889;55.040;73.076;2024-03-02T10:32:01;8.00;7.00;4.00
80555;PMS5003;69889;55.040;73.076;2024-03-02T10:34:28;6.00;6.00;4.00
80555;PMS5003;69889;55.040;73.076;2024-03-02T10:36:54;8.00;7.00;4.00
80555;PMS5003;69889;55.040;73.076;2024-03-02T10:39:22;7.00;6.00;4.00
80555;PMS5003;69889;55.040;73.076;2024-03-02T10:41:50;7.00;6.00;3.25
80555;PMS5003;69889;55.040;73.076;2024-03-02T10:44:18;7.00;6.00;5.00
80555;PMS5003;69889;55.040;73.076;2024-03-02T10:46:45;8.00;7.00;4.25
80555;PMS5003;69889;55.040;73.076;2024-03-02T10:49:13;8.00;7.00;4.00
80555;PMS5003;69889;55.040;73.076;2024-03-02T10:51:39;9.00;8.50;5.00
80555;PMS5003;69889;55.040;73.076;2024-03-02T10:54:06;7.00;6.00;4.00
80555;PMS5003;69889;55.040;73.076;2024-03-02T11:01:47;8.00;7.00;4.50
80555;PMS5003;69889;55.040;73.076;2024-03-02T11:04:15;6.25;5.75;4.00
80555;PMS5003;69889;55.040;73.076;2024-03-02T11:06:43;6.00;5.75;4.00
80555;PMS5003;69889;55.040;73.076;2024-03-02T11:09:14;7.00;6.00;4.00
80555;PMS5003;69889;55.040;73.076;2024-03-02T11:11:43;7.00;7.00;5.00
80555;PMS5003;69889;55.040;73.076;2024-03-02T11:14:31;6.00;6.00;4.00
80555;PMS5003;69889;55.040;73.076;2024-03-02T11:17:01;9.50;8.00;4.00
80555;PMS5003;69889;55.040;73.076;2024-03-02T11:19:29;6.00;6.00;4.00
80555;PMS5003;69889;55.040;73.076;2024-03-02T11:21:56;5.00;5.00;4.00
80555;PMS5003;69889;55.040;73.076;2024-03-02T11:26:50;6.00;5.00;3.00
80555;PMS5003;69889;55.040;73.076;2024-03-02T11:32:01;6.00;6.00;4.00
80555;PMS5003;69889;55.040;73.076;2024-03-02T11:34:32;4.00;4.00;3.00
80555;PMS5003;69889;55.040;73.076;2024-03-02T11:37:00;6.00;5.00;4.00
80555;PMS5003;69889;55.040;73.076;2024-03-02T11:39:28;5.75;4.25;3.00
80555;PMS5003;69889;55.040;73.076;2024-03-02T11:41:55;8.00;5.00;3.00
80555;PMS5003;69889;55.040;73.076;2024-03-02T11:44:21;6.00;5.50;3.00
80555;PMS5003;69889;55.040;73.076;2024-03-02T11:47:00;5.75;5.00;3.00
80555;PMS5003;69889;55.040;73.076;2024-03-02T11:52:03;4.00;4.00;4.00
80555;PMS5003;69889;55.040;73.076;2024-03-02T11:54:31;4.00;3.50;2.00
80555;PMS5003;69889;55.040;73.076;2024-03-02T11:56:59;3.00;3.00;2.00
80555;PMS5003;69889;55.040;73.076;2024-03-02T11:59:31;3.00;3.00;2.00
80555;PMS5003;69889;55.040;73.076;2024-03-02T12:01:58;3.00;3.00;2.00
80555;PMS5003;69889;55.040;73.076;2024-03-02T12:04:25;4.00;3.00;2.00
80555;PMS5003;69889;55.040;73.076;2024-03-02T12:06:59;4.00;3.75;2.00
80555;PMS5003;69889;55.040;73.076;2024-03-02T12:09:29;3.00;3.00;2.00
80555;PMS5003;69889;55.040;73.076;2024-03-02T12:12:02;5.00;4.00;2.00
80555;PMS5003;69889;55.040;73.076;2024-03-02T12:14:30;5.00;4.00;2.75
80555;PMS5003;69889;55.040;73.076;2024-03-02T12:16:56;5.00;4.00;3.00
80555;PMS5003;69889;55.040;73.076;2024-03-02T12:19:25;5.00;5.00;3.00
80555;PMS5003;69889;55.040;73.076;2024-03-02T12:22:10;4.00;4.00;3.00
80555;PMS5003;69889;55.040;73.076;2024-03-02T12:24:36;5.00;5.00;3.00
80555;PMS5003;69889;55.040;73.076;2024-03-02T12:27:04;5.00;4.00;2.00
80555;PMS5003;69889;55.040;73.076;2024-03-02T12:29:41;6.00;5.00;3.00
80555;PMS5003;69889;55.040;73.076;2024-03-02T12:32:26;4.75;4.00;2.00
80555;PMS5003;69889;55.040;73.076;2024-03-02T12:34:53;6.00;5.00;3.00
80555;PMS5003;69889;55.040;73.076;2024-03-02T12:37:21;4.50;4.00;3.00
80555;PMS5003;69889;55.040;73.076;2024-03-02T12:39:47;4.00;4.00;2.00
80555;PMS5003;69889;55.040;73.076;2024-03-02T12:42:14;4.00;3.75;2.50
80555;PMS5003;69889;55.040;73.076;2024-03-02T12:44:40;4.25;4.00;2.00
80555;PMS5003;69889;55.040;73.076;2024-03-02T12:47:07;3.25;3.00;2.00
80555;PMS5003;69889;55.040;73.076;2024-03-02T12:49:53;5.00;4.00;3.00
80555;PMS5003;69889;55.040;73.076;2024-03-02T12:52:20;4.00;4.00;2.00
80555;PMS5003;69889;55.040;73.076;2024-03-02T12:54:47;5.00;4.25;3.00
80555;PMS5003;69889;55.040;73.076;2024-03-02T12:57:19;6.75;5.75;3.00
80555;PMS5003;69889;55.040;73.076;2024-03-02T13:00:05;4.00;4.00;2.00
80555;PMS5003;69889;55.040;73.076;2024-03-02T13:02:45;5.00;4.00;3.00
80555;PMS5003;69889;55.040;73.076;2024-03-02T13:05:11;3.00;3.00;2.00
80555;PMS5003;69889;55.040;73.076;2024-03-02T13:07:57;5.00;3.00;3.00
80555;PMS5003;69889;55.040;73.076;2024-03-02T13:10:25;6.00;5.00;3.00
80555;PMS5003;69889;55.040;73.076;2024-03-02T13:12:52;5.00;4.25;3.00
80555;PMS5003;69889;55.040;73.076;2024-03-02T13:15:18;4.00;3.25;2.50
80555;PMS5003;69889;55.040;73.076;2024-03-02T13:17:45;6.00;5.25;3.00
80555;PMS5003;69889;55.040;73.076;2024-03-02T13:20:14;4.00;4.00;3.00
80555;PMS5003;69889;55.040;73.076;2024-03-02T13:22:41;5.00;3.00;2.00
80555;PMS5003;69889;55.040;73.076;2024-03-02T13:25:07;4.00;4.00;3.00
80555;PMS5003;69889;55.040;73.076;2024-03-02T13:27:36;3.50;3.50;2.00
80555;PMS5003;69889;55.040;73.076;2024-03-02T13:30:03;4.00;4.00;3.00
80555;PMS5003;69889;55.040;73.076;2024-03-02T13:32:51;4.50;4.00;2.50
80555;PMS5003;69889;55.040;73.076;2024-03-02T13:35:18;5.00;4.75;3.00
80555;PMS5003;69889;55.040;73.076;2024-03-02T13:37:45;6.00;4.00;3.00
80555;PMS5003;69889;55.040;73.076;2024-03-02T13:40:27;4.00;4.00;2.50
80555;PMS5003;69889;55.040;73.076;2024-03-02T13:42:55;7.00;5.25;4.00
80555;PMS5003;69889;55.040;73.076;2024-03-02T13:45:22;5.75;5.00;4.00
80555;PMS5003;69889;55.040;73.076;2024-03-02T13:48:08;6.00;5.75;4.00
80555;PMS5003;69889;55.040;73.076;2024-03-02T13:50:53;8.00;7.00;4.00
80555;PMS5003;69889;55.040;73.076;2024-03-02T13:53:20;8.00;7.00;4.00
80555;PMS5003;69889;55.040;73.076;2024-03-02T13:55:46;8.00;7.00;4.00
80555;PMS5003;69889;55.040;73.076;2024-03-02T13:58:13;7.00;6.00;4.00
80555;PMS5003;69889;55.040;73.076;2024-03-02T14:01:00;4.00;4.00;3.00
80555;PMS5003;69889;55.040;73.076;2024-03-02T14:03:27;8.00;6.00;4.00
80555;PMS5003;69889;55.040;73.076;2024-03-02T14:05:54;5.00;4.25;2.75
80555;PMS5003;69889;55.040;73.076;2024-03-02T14:08:21;5.00;4.75;4.00
80555;PMS5003;69889;55.040;73.076;2024-03-02T14:10:48;6.00;5.00;4.00
80555;PMS5003;69889;55.040;73.076;2024-03-02T14:13:14;4.00;4.00;2.50
80555;PMS5003;69889;55.040;73.076;2024-03-02T14:15:41;5.75;5.50;4.00
80555;PMS5003;69889;55.040;73.076;2024-03-02T14:18:08;8.00;6.25;4.50
80555;PMS5003;69889;55.040;73.076;2024-03-02T14:20:38;8.00;6.50;3.50
80555;PMS5003;69889;55.040;73.076;2024-03-02T14:23:04;8.00;7.00;4.00
80555;PMS5003;69889;55.040;73.076;2024-03-02T14:25:30;6.75;5.50;4.00